Terminal Aerodrome Forecast
Issued by NWS

Home | Current Version | Previous Version | Text Only | Print | Product List | Glossary On
Versions: 1 2 3 4 5 6 7 8 9 10 11 12 13 14 15 16 17 18 19 20 21 22 23 24 25 26 27 28 29 30 31 32 33 34 35 36 37
000
FTUS45 KSLC 251536 AAC
TAFBCE
TAF AMD
KBCE 251536Z 2516/2612 26010G20KT 1/4SM +SN FZFG VV006
     FM251600 25012G18KT 3SM -SN SCT008 OVC020
      TEMPO 2516/2518 1/2SM SN FZFG VV006
     FM252100 31015G25KT P6SM VCSH SCT008 BKN040
     FM260200 33007KT P6SM BKN040=

USA.gov is the U.S. government's official web portal to all federal, state and local government web resources and services.